Time;durP1;ratioP1;P1;durP2;ratioP2;P2;SDS_P1;SDS_P2;PMS_P1;PMS_P2;Temp;Humidity;BMP_temperature;BMP_pressure;BME280_temperature;BME280_humidity;BME280_pressure;Samples;Min_cycle;Max_cycle;Signal;HPM_P1;HPM_P2
2023/06/23 00:00:27;;;;;;;17.40;8.90;;;17.50;99.90;;;18.30;100.00;100168.53;5000098;28;20153;-82
2023/06/23 00:02:54;;;;;;;13.68;8.95;;;17.50;99.90;;;18.22;100.00;100158.09;5007970;28;20539;-82
2023/06/23 00:05:20;;;;;;;21.05;10.45;;;17.40;99.90;;;18.11;100.00;100149.00;4990102;28;20491;-82
2023/06/23 00:07:46;;;;;;;20.13;10.07;;;17.40;99.90;;;18.14;100.00;100144.84;5011859;28;20092;-82
2023/06/23 00:10:12;;;;;;;17.42;10.13;;;17.50;99.90;;;18.15;100.00;100141.81;5007682;28;20435;-82
2023/06/23 00:12:43;;;;;;;24.40;10.52;;;17.40;99.90;;;18.16;100.00;100153.66;5003816;28;20088;-82
2023/06/23 00:15:12;;;;;;;15.25;10.18;;;17.50;99.90;;;17.99;100.00;100141.00;5000039;28;20034;-82
2023/06/23 00:17:40;;;;;;;16.35;9.98;;;17.50;99.90;;;18.18;100.00;100134.91;4999247;28;20034;-82
2023/06/23 00:20:12;;;;;;;20.08;10.40;;;17.50;99.90;;;18.14;100.00;100134.63;4994851;28;20035;-81
2023/06/23 00:22:38;;;;;;;22.60;11.02;;;17.50;99.90;;;18.15;100.00;100135.44;4989466;28;20076;-81
2023/06/23 00:25:04;;;;;;;19.35;11.35;;;17.40;99.90;;;18.12;100.00;100125.81;4987904;28;20474;-82
2023/06/23 00:27:30;;;;;;;23.65;12.20;;;17.50;99.90;;;18.14;100.00;100131.03;4998250;28;20141;-81
2023/06/23 00:29:56;;;;;;;17.35;11.25;;;17.50;99.90;;;18.04;100.00;100118.13;5002004;28;20429;-79
2023/06/23 00:32:22;;;;;;;20.88;12.02;;;17.50;99.90;;;18.15;100.00;100121.66;4998687;28;20034;-80
2023/06/23 00:34:47;;;;;;;18.38;11.55;;;17.50;99.90;;;18.04;100.00;100129.16;4994361;28;20512;-80
2023/06/23 00:37:14;;;;;;;21.55;10.73;;;17.60;99.90;;;17.94;100.00;100114.22;5000116;28;20094;-78
2023/06/23 00:39:41;;;;;;;19.15;11.10;;;17.60;99.90;;;18.06;100.00;100104.84;4989140;28;20084;-79
2023/06/23 00:42:08;;;;;;;17.42;10.70;;;17.70;99.90;;;18.07;100.00;100093.53;5010779;28;20099;-78
2023/06/23 00:44:34;;;;;;;16.67;10.48;;;17.70;99.90;;;18.09;100.00;100096.81;5001691;28;20034;-78
2023/06/23 00:47:02;;;;;;;20.92;12.02;;;17.70;99.90;;;18.13;100.00;100099.03;4979598;28;20042;-77
2023/06/23 00:49:29;;;;;;;17.60;10.77;;;17.70;99.90;;;17.88;100.00;100071.19;4976071;28;20042;-78
2023/06/23 00:52:01;;;;;;;18.13;11.68;;;17.70;99.90;;;18.38;100.00;100098.13;4996326;28;20057;-79
2023/06/23 00:54:28;;;;;;;20.50;12.10;;;17.70;99.90;;;18.43;100.00;100131.22;4996328;28;20354;-78
2023/06/23 00:56:58;;;;;;;20.10;12.00;;;17.80;99.90;;;18.49;100.00;100157.69;4982833;28;20470;-78
2023/06/23 00:59:28;;;;;;;20.42;12.18;;;17.80;99.90;;;18.39;100.00;100152.22;5002393;28;20034;-77
2023/06/23 01:02:01;;;;;;;18.05;12.40;;;17.80;99.90;;;18.47;100.00;100165.44;4976202;28;20113;-76
2023/06/23 01:04:29;;;;;;;18.85;12.52;;;17.80;99.90;;;18.50;100.00;100159.34;4993661;28;20120;-79
2023/06/23 01:07:06;;;;;;;21.42;13.05;;;17.80;99.90;;;18.74;100.00;100183.56;4992701;28;20478;-78
2023/06/23 01:09:57;;;;;;;18.88;11.90;;;17.90;99.90;;;18.20;100.00;100197.00;4997168;28;20034;-78
2023/06/23 01:12:53;;;;;;;16.50;11.60;;;17.80;99.90;;;18.35;100.00;100173.22;5010418;28;20041;-78
2023/06/23 01:15:29;;;;;;;19.17;12.00;;;17.80;99.90;;;18.23;100.00;100163.31;5003423;28;20128;-78
2023/06/23 01:18:18;;;;;;;17.17;11.55;;;17.90;99.90;;;18.33;100.00;100161.66;4992699;28;20042;-78
2023/06/23 01:20:47;;;;;;;20.27;12.48;;;17.90;99.90;;;18.44;100.00;100149.44;4998282;28;20034;-78
2023/06/23 01:23:31;;;;;;;20.33;12.23;;;17.90;99.90;;;18.45;100.00;100173.19;4993112;28;20037;-78
2023/06/23 01:26:27;;;;;;;21.35;12.77;;;17.80;99.90;;;18.45;100.00;100194.47;5003838;28;20037;-77
2023/06/23 01:29:00;;;;;;;13.93;11.23;;;17.80;99.90;;;18.47;100.00;100190.31;5000183;28;20047;-77
2023/06/23 01:31:44;;;;;;;20.30;12.45;;;17.80;99.90;;;18.20;100.00;100196.19;4993244;28;20038;-77
2023/06/23 01:34:18;;;;;;;20.00;12.25;;;17.90;99.90;;;18.23;100.00;100181.81;5001418;28;20466;-79
2023/06/23 01:36:54;;;;;;;17.65;11.75;;;17.80;99.90;;;18.17;100.00;100171.88;5001694;28;20434;-79
2023/06/23 01:39:23;;;;;;;19.00;11.75;;;17.80;99.90;;;18.66;100.00;100196.03;4999850;28;20378;-78
2023/06/23 01:42:04;;;;;;;18.92;12.20;;;17.90;99.90;;;18.66;100.00;100195.22;4986833;28;20449;-80
2023/06/23 01:44:33;;;;;;;17.90;12.07;;;17.90;99.90;;;18.86;100.00;100205.34;5004716;28;20032;-77
2023/06/23 01:47:10;;;;;;;20.10;12.55;;;17.80;99.90;;;18.61;100.00;100209.06;4975377;28;20096;-77
2023/06/23 01:49:38;;;;;;;14.32;12.10;;;17.80;99.90;;;18.73;100.00;100234.41;5001266;28;20042;-78
2023/06/23 01:52:06;;;;;;;18.80;12.53;;;17.90;99.90;;;18.92;100.00;100248.41;5001554;28;20088;-78
2023/06/23 01:54:38;;;;;;;18.00;12.77;;;17.90;99.90;;;19.21;100.00;100282.91;4990389;28;20292;-77
2023/06/23 01:57:06;;;;;;;16.92;12.73;;;17.90;99.90;;;19.19;100.00;100287.88;5006541;28;20465;-79
2023/06/23 01:59:36;;;;;;;20.90;12.82;;;17.90;99.90;;;19.09;100.00;100284.03;5012107;28;20037;-77
2023/06/23 02:02:04;;;;;;;18.63;12.23;;;17.90;99.90;;;19.24;100.00;100305.28;4994669;28;20235;-77
2023/06/23 02:04:32;;;;;;;21.33;12.50;;;17.90;99.90;;;18.65;100.00;100281.97;4998913;28;20048;-78
2023/06/23 02:06:59;;;;;;;18.70;13.10;;;17.90;99.90;;;19.17;100.00;100277.09;5001840;28;20034;-78
2023/06/23 02:09:28;;;;;;;17.13;12.65;;;17.90;99.90;;;19.35;100.00;100303.28;4995992;28;20497;-80
2023/06/23 02:11:57;;;;;;;15.85;12.93;;;17.90;99.90;;;19.21;100.00;100289.22;5001257;28;20045;-78
2023/06/23 02:14:27;;;;;;;17.73;13.05;;;17.90;99.90;;;19.36;100.00;100312.41;4979892;28;20030;-78
2023/06/23 02:16:54;;;;;;;17.00;13.25;;;17.90;99.90;;;18.68;100.00;100287.72;4989333;28;20517;-79
2023/06/23 02:19:24;;;;;;;16.75;14.13;;;18.00;99.90;;;18.53;100.00;100260.97;4999399;28;20057;-78
2023/06/23 02:21:53;;;;;;;17.45;14.20;;;17.90;99.90;;;18.26;100.00;100217.16;5002871;28;20450;-78
2023/06/23 02:24:21;;;;;;;18.02;14.77;;;17.90;99.90;;;18.36;100.00;100221.81;4992512;28;20049;-78
2023/06/23 02:26:48;;;;;;;18.10;14.55;;;17.90;99.90;;;18.46;100.00;100223.75;4994830;28;20058;-78
2023/06/23 02:29:15;;;;;;;19.95;15.13;;;17.90;99.90;;;18.48;100.00;100204.94;4999233;28;20397;-78
2023/06/23 02:31:41;;;;;;;17.50;15.65;;;17.90;99.90;;;18.37;100.00;100198.63;4980952;28;20469;-78
2023/06/23 02:34:08;;;;;;;18.95;16.05;;;18.00;99.90;;;18.51;100.00;100204.38;5001974;28;20034;-78
2023/06/23 02:36:46;;;;;;;20.27;17.67;;;17.90;99.90;;;19.13;100.00;100206.09;4997604;28;20042;-78
2023/06/23 02:39:17;;;;;;;21.23;18.77;;;17.90;99.90;;;18.45;100.00;100211.84;4992092;28;20039;-78
2023/06/23 02:41:47;;;;;;;24.63;19.88;;;17.90;99.90;;;18.60;100.00;100215.69;4989379;28;20473;-78
2023/06/23 02:44:17;;;;;;;22.98;20.35;;;17.90;99.90;;;18.45;100.00;100228.41;4996649;28;20483;-79
2023/06/23 02:46:48;;;;;;;24.80;21.77;;;18.00;99.90;;;18.54;100.00;100231.44;4994836;28;20033;-80
2023/06/23 02:49:22;;;;;;;25.23;22.52;;;18.00;99.90;;;18.48;100.00;100233.38;5003466;28;20042;-80
2023/06/23 02:51:55;;;;;;;26.45;23.65;;;17.90;99.90;;;18.37;100.00;100216.00;4985202;28;20125;-79
2023/06/23 02:54:25;;;;;;;26.20;23.40;;;17.90;99.90;;;18.42;100.00;100193.09;4996421;28;20046;-78
2023/06/23 02:56:58;;;;;;;26.33;22.95;;;17.90;99.90;;;18.29;100.00;100169.66;4978110;28;20034;-79
2023/06/23 02:59:27;;;;;;;27.25;24.23;;;18.00;99.90;;;18.35;100.00;100176.81;5003137;28;20125;-81
2023/06/23 03:01:57;;;;;;;27.05;24.15;;;18.00;99.90;;;18.32;100.00;100146.19;4978692;28;20113;-79
2023/06/23 03:04:23;;;;;;;25.92;23.13;;;18.00;99.90;;;18.39;100.00;100152.22;5003548;28;20042;-79
2023/06/23 03:06:51;;;;;;;29.38;24.15;;;18.00;99.90;;;18.55;100.00;100173.13;5006077;28;20042;-78
2023/06/23 03:09:17;;;;;;;25.13;22.63;;;18.00;99.90;;;18.37;100.00;100176.53;5005248;28;20043;-79
2023/06/23 03:11:42;;;;;;;25.92;23.20;;;18.00;99.90;;;18.41;100.00;100172.09;4986081;28;20038;-78
2023/06/23 03:14:08;;;;;;;25.67;22.98;;;18.00;99.90;;;18.27;100.00;100180.16;4990405;28;20026;-80
2023/06/23 03:16:59;;;;;;;27.52;24.48;;;18.10;99.90;;;18.78;100.00;100192.94;4994692;28;20409;-79
2023/06/23 03:19:53;;;;;;;27.67;23.92;;;18.00;99.90;;;18.74;100.00;100227.78;4995478;28;20057;-78
2023/06/23 03:22:38;;;;;;;26.27;23.58;;;18.00;99.90;;;18.83;100.00;100258.41;5001320;28;20038;-76
2023/06/23 03:25:14;;;;;;;26.90;24.08;;;18.00;99.90;;;18.79;100.00;100255.38;4985035;28;20498;-78
2023/06/23 03:27:42;;;;;;;26.33;23.52;;;18.00;99.90;;;18.77;100.00;100252.06;5000017;28;20611;-79
2023/06/23 03:30:48;;;;;;;25.58;22.90;;;18.00;99.90;;;18.43;100.00;100232.56;4998536;28;20038;-80
2023/06/23 03:33:24;;;;;;;27.40;23.35;;;18.00;99.90;;;18.52;100.00;100228.13;5000401;28;20053;-78
2023/06/23 03:35:55;;;;;;;25.95;23.23;;;18.00;99.90;;;18.45;100.00;100224.84;4996112;28;20136;-77
2023/06/23 03:38:24;;;;;;;24.98;22.48;;;18.00;99.90;;;18.45;100.00;100225.66;5005898;28;20026;-79
2023/06/23 03:41:02;;;;;;;26.38;23.75;;;18.00;99.90;;;18.50;100.00;100222.88;5006172;28;20048;-80
2023/06/23 03:43:35;;;;;;;26.55;23.70;;;18.00;99.90;;;18.49;100.00;100236.97;4983398;28;20044;-83
2023/06/23 03:46:12;;;;;;;26.48;23.67;;;18.00;99.90;;;18.99;100.00;100259.22;4983889;28;20394;-81
2023/06/23 03:48:42;;;;;;;28.13;25.23;;;18.00;99.90;;;18.78;100.00;100286.88;5011457;28;20096;-80
2023/06/23 03:51:14;;;;;;;28.50;25.52;;;18.00;99.90;;;18.72;100.00;100265.91;5008583;28;20038;-81
2023/06/23 03:53:43;;;;;;;28.67;25.67;;;18.00;99.90;;;18.44;100.00;100273.72;5001187;28;20096;-81
2023/06/23 03:56:12;;;;;;;29.13;26.13;;;18.00;99.90;;;18.34;100.00;100265.47;5001777;28;20504;-82
2023/06/23 03:58:40;;;;;;;30.48;26.45;;;18.00;99.90;;;18.82;100.00;100284.41;4986528;28;20926;-81
2023/06/23 04:01:08;;;;;;;28.92;25.88;;;18.00;99.90;;;18.45;100.00;100269.03;5006294;28;20038;-80
2023/06/23 04:03:38;;;;;;;29.23;26.02;;;17.90;99.90;;;18.77;100.00;100268.66;4986385;28;20053;-82
2023/06/23 04:06:08;;;;;;;27.90;25.00;;;18.00;99.90;;;18.45;100.00;100269.84;5009725;28;20030;-78
2023/06/23 04:08:38;;;;;;;27.80;24.80;;;18.00;99.90;;;18.87;100.00;100298.19;5001893;28;20038;-80
2023/06/23 04:11:06;;;;;;;27.83;24.95;;;18.00;99.90;;;19.07;100.00;100330.47;4999334;28;20084;-80
2023/06/23 04:13:37;;;;;;;26.67;23.77;;;17.90;99.90;;;18.43;100.00;100327.28;5009645;28;20038;-78
2023/06/23 04:16:07;;;;;;;28.60;25.50;;;18.00;99.90;;;18.94;100.00;100328.31;5003484;28;20077;-77
2023/06/23 04:18:37;;;;;;;28.08;25.05;;;17.90;99.90;;;18.95;100.00;100357.59;5008075;28;20509;-78
2023/06/23 04:21:06;;;;;;;27.98;25.17;;;17.90;99.90;;;18.85;100.00;100335.53;5005844;28;20034;-83
2023/06/23 04:23:35;;;;;;;31.00;25.75;;;17.90;99.90;;;18.97;100.00;100350.69;4995104;28;20368;-82
2023/06/23 04:26:03;;;;;;;28.98;25.88;;;17.90;99.90;;;18.96;100.00;100365.63;4994808;28;20386;-84
2023/06/23 04:28:33;;;;;;;28.95;24.13;;;17.90;99.90;;;18.67;100.00;100359.84;4984188;28;20103;-83
2023/06/23 04:31:05;;;;;;;26.23;23.35;;;17.80;99.90;;;18.52;100.00;100344.94;4995322;28;20038;-81
2023/06/23 04:33:30;;;;;;;27.88;24.92;;;17.70;99.90;;;18.47;100.00;100322.88;5001262;28;20042;-83
2023/06/23 04:36:13;;;;;;;35.97;27.67;;;17.70;99.90;;;18.50;100.00;100330.59;5011445;28;20045;-81
2023/06/23 04:38:52;;;;;;;35.55;24.52;;;17.60;99.90;;;17.79;100.00;100238.41;5002288;28;20026;-81
2023/06/23 04:41:21;;;;;;;30.88;25.35;;;17.50;99.90;;;22.36;100.00;100441.72;5001105;28;20057;-82
2023/06/23 04:43:51;;;;;;;36.38;26.80;;;17.40;99.90;;;21.79;100.00;100484.16;4995819;28;20034;-80
2023/06/23 04:46:28;;;;;;;36.65;28.70;;;17.30;99.90;;;22.25;100.00;100486.28;5007056;28;20064;-81
2023/06/23 04:49:07;;;;;;;33.85;26.33;;;17.30;99.90;;;21.38;100.00;100496.53;5000761;28;20046;-81
2023/06/23 04:51:40;;;;;;;35.72;28.85;;;17.20;99.90;;;21.25;100.00;100492.50;4982765;28;20042;-80
2023/06/23 04:54:31;;;;;;;31.75;26.33;;;17.20;99.90;;;20.77;100.00;100505.06;5001687;28;20500;-80
2023/06/23 04:57:02;;;;;;;39.13;29.13;;;17.20;99.90;;;21.05;100.00;100499.03;4997935;28;20062;-80
2023/06/23 04:59:37;;;;;;;41.42;30.92;;;17.20;99.90;;;21.61;100.00;100499.59;4982651;28;20050;-80
2023/06/23 05:02:05;;;;;;;39.85;31.23;;;17.20;99.90;;;20.64;100.00;100511.25;5000189;28;20088;-81
2023/06/23 05:04:36;;;;;;;43.22;30.75;;;17.20;99.90;;;20.52;100.00;100512.47;5007622;28;20048;-81
2023/06/23 05:07:04;;;;;;;39.63;30.52;;;17.20;99.90;;;20.28;100.00;100515.09;5005551;28;20044;-84
2023/06/23 05:09:34;;;;;;;;;;;17.20;99.90;;;20.25;100.00;100510.13;5000457;28;20034;-79
2023/06/23 05:12:02;;;;;;;;;;;17.20;99.90;;;19.90;100.00;100512.78;4987267;28;19922;-79
2023/06/23 05:14:32;;;;;;;21.40;18.20;;;17.10;99.90;;;19.42;100.00;100506.81;4998719;28;19941;-80
2023/06/23 05:17:01;;;;;;;21.98;16.90;;;17.00;99.90;;;19.64;100.00;100523.09;4998109;28;20050;-80
2023/06/23 05:19:31;;;;;;;20.13;14.95;;;17.00;99.90;;;19.27;100.00;100491.91;5007252;28;20057;-81
2023/06/23 05:21:59;;;;;;;15.75;12.75;;;16.80;99.90;;;18.64;100.00;100509.59;5000019;28;20069;-80
2023/06/23 05:24:27;;;;;;;17.42;14.05;;;16.80;99.90;;;19.37;100.00;100504.91;4996495;28;20068;-81
2023/06/23 05:27:00;;;;;;;16.40;12.55;;;16.70;99.90;;;19.07;100.00;100517.66;4995505;28;20042;-83
2023/06/23 05:29:28;;;;;;;16.70;13.60;;;16.70;99.90;;;18.88;100.00;100506.31;4996723;28;20117;-84
2023/06/23 05:31:55;;;;;;;;;;;16.70;99.90;;;18.90;100.00;100520.66;5000382;28;20029;-83
2023/06/23 05:34:24;;;;;;;16.45;14.00;;;16.70;99.90;;;19.10;100.00;100523.47;5000969;28;19917;-82
2023/06/23 05:36:53;;;;;;;15.20;12.65;;;16.70;99.90;;;18.79;100.00;100519.84;4993060;28;20397;-83
2023/06/23 05:39:20;;;;;;;13.90;11.25;;;16.70;99.90;;;18.57;100.00;100522.84;5011399;28;20560;-81
2023/06/23 05:41:47;;;;;;;13.25;10.52;;;16.70;99.90;;;18.80;100.00;100533.34;5000216;28;20034;-79
2023/06/23 05:44:13;;;;;;;9.95;8.85;;;16.70;99.90;;;18.73;100.00;100537.53;4981409;28;20038;-79
2023/06/23 05:46:43;;;;;;;8.25;7.20;;;16.60;99.90;;;18.78;100.00;100535.56;5002192;28;20516;-81
2023/06/23 05:49:20;;;;;;;5.60;4.47;;;16.60;99.90;;;18.78;100.00;100554.09;5001270;28;20046;-82
2023/06/23 05:51:59;;;;;;;7.43;5.80;;;16.50;99.90;;;18.69;100.00;100570.38;4997507;28;20045;-80
2023/06/23 05:54:29;;;;;;;9.65;6.20;;;16.40;99.90;;;18.66;100.00;100596.63;5003246;28;20123;-79
2023/06/23 05:57:00;;;;;;;7.82;4.88;;;16.40;99.90;;;18.63;100.00;100579.78;5004420;28;20031;-80
2023/06/23 05:59:44;;;;;;;5.10;4.05;;;16.40;99.90;;;18.43;100.00;100591.56;5018864;28;20554;-80
2023/06/23 06:02:21;;;;;;;5.78;4.45;;;16.30;99.90;;;18.37;100.00;100594.31;5016162;28;20033;-80
2023/06/23 06:04:57;;;;;;;6.72;5.07;;;16.20;99.90;;;18.43;100.00;100603.47;5030399;28;20080;-82
2023/06/23 06:07:25;;;;;;;8.27;5.55;;;16.20;99.90;;;18.29;100.00;100625.22;5031937;28;20038;-80
2023/06/23 06:09:52;;;;;;;6.75;5.63;;;16.10;99.90;;;18.28;100.00;100619.97;5018048;28;20105;-80
2023/06/23 06:12:18;;;;;;;8.97;6.70;;;16.00;99.90;;;18.25;100.00;100622.16;5006085;28;20041;-81
2023/06/23 06:14:48;;;;;;;9.07;5.55;;;16.00;99.90;;;18.06;100.00;100630.06;4998644;28;20299;-81
2023/06/23 06:17:16;;;;;;;8.60;6.40;;;15.90;99.90;;;18.11;100.00;100641.13;4993389;28;20062;-80
2023/06/23 06:19:44;;;;;;;7.68;6.45;;;15.80;99.90;;;18.17;100.00;100633.72;5009430;28;20072;-79
2023/06/23 06:22:13;;;;;;;8.43;6.82;;;15.80;99.90;;;18.08;100.00;100652.72;5008765;28;20046;-79
2023/06/23 06:24:42;;;;;;;9.55;6.88;;;15.70;99.90;;;18.08;100.00;100676.75;4998324;28;20038;-79
2023/06/23 06:27:10;;;;;;;8.73;7.38;;;15.70;99.90;;;18.02;100.00;100673.13;5009289;28;20051;-78
2023/06/23 06:29:38;;;;;;;9.63;7.50;;;15.70;99.90;;;18.00;100.00;100667.00;5021312;28;20049;-81
2023/06/23 06:32:07;;;;;;;10.05;8.73;;;15.70;99.90;;;18.35;100.00;100684.06;5007000;28;20470;-79
2023/06/23 06:34:34;;;;;;;10.00;8.15;;;15.80;99.90;;;18.10;100.00;100704.91;5004304;28;20433;-81
2023/06/23 06:37:02;;;;;;;9.35;7.68;;;15.80;99.90;;;18.33;100.00;100708.38;5007487;28;20401;-81
2023/06/23 06:39:32;;;;;;;11.43;8.00;;;15.70;99.90;;;18.32;100.00;100715.00;4990175;28;20058;-83
2023/06/23 06:41:58;;;;;;;9.82;7.70;;;15.80;99.90;;;18.20;100.00;100716.00;5005363;28;20026;-78
2023/06/23 06:44:24;;;;;;;8.90;7.40;;;15.80;99.90;;;18.20;100.00;100718.78;4998836;28;20042;-79
2023/06/23 06:46:53;;;;;;;10.38;8.18;;;15.80;99.90;;;18.25;100.00;100740.88;4998008;28;20030;-80
2023/06/23 06:49:24;;;;;;;9.25;7.18;;;15.80;99.90;;;17.85;100.00;100742.25;5012875;28;20095;-82
2023/06/23 06:51:52;;;;;;;11.82;9.27;;;15.70;99.90;;;17.90;100.00;100750.56;5005592;28;20057;-78
2023/06/23 06:54:17;;;;;;;;;;;15.60;99.90;;;17.63;100.00;100751.44;4997492;28;20037;-78
2023/06/23 06:56:44;;;;;;;12.52;8.75;;;15.50;99.90;;;17.57;100.00;100766.28;4981728;28;19944;-82
2023/06/23 06:59:11;;;;;;;11.18;8.65;;;15.50;99.90;;;17.39;100.00;100760.03;5002003;28;20030;-80
2023/06/23 07:01:39;;;;;;;11.80;9.05;;;15.40;99.90;;;17.82;100.00;100684.81;5012690;28;20475;-80
2023/06/23 07:04:07;;;;;;;14.95;11.25;;;15.40;99.90;;;17.85;100.00;100739.47;4996999;28;20038;-79
2023/06/23 07:06:35;;;;;;;14.77;11.73;;;15.40;99.90;;;18.04;100.00;100797.06;5004810;28;20160;-80
2023/06/23 07:09:00;;;;;;;15.52;11.45;;;15.30;99.90;;;17.77;100.00;100828.22;5011420;28;20053;-80
2023/06/23 07:11:27;;;;;;;16.48;12.25;;;15.30;99.90;;;17.57;100.00;100832.47;4992486;28;20035;-80
2023/06/23 07:13:52;;;;;;;15.75;10.98;;;15.30;99.90;;;18.08;100.00;100845.94;4998023;28;20103;-78
2023/06/23 07:16:18;;;;;;;16.60;12.10;;;15.30;99.90;;;18.03;100.00;100861.63;5007684;28;20054;-78
2023/06/23 07:18:44;;;;;;;18.95;11.52;;;15.30;99.90;;;17.82;100.00;100861.41;5005517;28;20039;-80
2023/06/23 07:21:10;;;;;;;21.77;15.05;;;15.30;99.90;;;17.92;100.00;100874.50;4966858;28;20042;-78
2023/06/23 07:23:37;;;;;;;24.67;14.95;;;15.30;99.90;;;17.91;100.00;100879.16;5008390;28;20046;-79
2023/06/23 07:26:03;;;;;;;17.70;13.70;;;15.30;99.90;;;17.95;100.00;100874.78;4991795;28;20038;-79
2023/06/23 07:28:29;;;;;;;19.55;12.57;;;15.30;99.90;;;18.05;100.00;100898.91;4979979;28;20211;-79
2023/06/23 07:30:55;;;;;;;20.27;13.88;;;15.30;99.90;;;17.86;100.00;100901.19;5007466;28;20037;-79
2023/06/23 07:33:20;;;;;;;18.02;12.50;;;15.30;99.90;;;17.95;100.00;100909.84;4998644;28;20387;-77
2023/06/23 07:35:47;;;;;;;18.00;12.85;;;15.30;99.90;;;18.00;100.00;100900.75;5009116;28;20100;-78
2023/06/23 07:38:13;;;;;;;16.35;12.30;;;15.30;99.90;;;17.94;100.00;100911.75;5006496;28;20041;-79
2023/06/23 07:40:39;;;;;;;16.52;11.20;;;15.30;99.90;;;17.89;100.00;100891.53;5003744;28;20026;-79
2023/06/23 07:43:04;;;;;;;14.40;10.38;;;15.30;99.90;;;17.63;100.00;100908.66;5007260;28;20042;-81
2023/06/23 07:45:30;;;;;;;14.40;10.30;;;15.30;99.90;;;17.63;100.00;100927.97;5004541;28;20046;-81
2023/06/23 07:47:56;;;;;;;14.82;11.15;;;15.40;99.90;;;17.62;100.00;100926.31;5002447;28;20041;-79
2023/06/23 07:50:21;;;;;;;14.90;11.88;;;15.30;99.90;;;18.21;100.00;100938.56;4992263;28;20053;-77
2023/06/23 07:52:54;;;;;;;14.00;10.10;;;15.40;99.90;;;18.05;100.00;100937.56;5009215;28;20045;-79
2023/06/23 07:55:20;;;;;;;15.68;11.13;;;15.30;99.90;;;18.10;100.00;100945.06;4993035;28;20048;-77
2023/06/23 07:57:47;;;;;;;16.90;12.80;;;15.40;99.90;;;18.33;100.00;100959.66;5011209;28;20482;-79
2023/06/23 08:00:13;;;;;;;19.70;13.55;;;15.40;99.90;;;18.66;100.00;100982.59;5009087;28;20058;-79
2023/06/23 08:02:42;;;;;;;17.38;12.25;;;15.50;99.90;;;18.54;100.00;100983.59;5012172;28;20104;-77
2023/06/23 08:05:09;;;;;;;12.02;8.73;;;15.50;99.90;;;18.16;100.00;100965.25;5011212;28;20521;-78
2023/06/23 08:07:35;;;;;;;9.77;7.95;;;15.40;99.90;;;18.33;100.00;100973.47;5012119;28;20057;-76
2023/06/23 08:10:01;;;;;;;10.32;7.97;;;15.50;99.90;;;19.02;100.00;100988.44;5004355;28;20037;-77
2023/06/23 08:12:27;;;;;;;8.90;7.10;;;15.50;99.90;;;18.74;100.00;100990.41;5007817;28;20038;-78
2023/06/23 08:14:54;;;;;;;8.07;6.45;;;15.60;99.90;;;18.93;100.00;101018.47;4995554;28;20069;-77
2023/06/23 08:17:19;;;;;;;10.77;7.70;;;15.60;99.90;;;18.59;100.00;101017.91;4994612;28;20065;-76
2023/06/23 08:19:45;;;;;;;15.93;12.00;;;15.60;99.90;;;18.08;100.00;101008.00;5007627;28;20089;-78
2023/06/23 08:22:11;;;;;;;16.08;12.07;;;15.70;99.90;;;18.08;100.00;101019.84;5014962;28;20038;-79
2023/06/23 08:24:38;;;;;;;18.95;13.95;;;15.70;99.90;;;18.47;100.00;101020.84;5004658;28;20104;-78
2023/06/23 08:27:04;;;;;;;20.25;14.23;;;15.70;99.90;;;18.49;100.00;101024.97;5007218;28;20081;-76
2023/06/23 08:29:29;;;;;;;17.73;13.20;;;15.80;99.90;;;18.29;100.00;101024.78;5008624;28;20025;-75
2023/06/23 08:31:55;;;;;;;16.30;12.60;;;15.70;99.90;;;18.32;100.00;101032.56;4994394;28;20493;-80
2023/06/23 08:34:21;;;;;;;21.13;14.57;;;15.70;99.90;;;18.49;100.00;101037.97;5008483;28;20034;-79
2023/06/23 08:36:46;;;;;;;15.50;12.60;;;15.70;99.90;;;18.53;100.00;101037.19;5016781;28;20034;-78
2023/06/23 08:39:14;;;;;;;15.75;12.73;;;15.80;99.90;;;18.47;100.00;101052.03;5008682;28;20433;-80
2023/06/23 08:41:43;;;;;;;16.80;12.40;;;15.70;99.90;;;18.42;100.00;101065.81;5010761;28;20034;-78
2023/06/23 08:44:14;;;;;;;13.52;10.75;;;15.70;99.90;;;18.36;100.00;101078.72;4993407;28;20414;-78
2023/06/23 08:46:43;;;;;;;14.18;11.50;;;15.70;99.90;;;18.30;100.00;101065.09;5008595;28;20046;-79
2023/06/23 08:49:15;;;;;;;14.85;11.45;;;15.70;99.90;;;18.45;100.00;101078.28;5003057;28;20068;-80
2023/06/23 08:51:42;;;;;;;16.20;12.63;;;15.70;99.90;;;18.86;100.00;101084.19;4995754;28;20030;-78
2023/06/23 08:54:10;;;;;;;14.90;11.90;;;15.70;99.90;;;18.88;100.00;101075.66;4988957;28;20494;-77
2023/06/23 08:56:36;;;;;;;13.45;10.32;;;15.70;99.90;;;18.61;100.00;101093.06;4992530;28;20037;-80
2023/06/23 08:59:02;;;;;;;14.25;10.75;;;15.70;99.90;;;18.49;100.00;101096.81;5010663;28;20038;-77
2023/06/23 09:01:27;;;;;;;15.60;11.55;;;15.70;99.90;;;18.79;100.00;101109.28;5005913;28;20041;-79
2023/06/23 09:03:54;;;;;;;14.80;11.30;;;15.70;99.90;;;18.38;100.00;101097.78;4996452;28;20042;-76
2023/06/23 09:06:20;;;;;;;16.20;13.00;;;15.80;99.90;;;18.88;100.00;101108.81;5003694;28;20038;-80
2023/06/23 09:08:45;;;;;;;18.85;13.48;;;15.80;99.90;;;18.80;100.00;101110.94;4990813;28;20030;-78
2023/06/23 09:11:11;;;;;;;19.10;13.55;;;15.80;99.90;;;19.20;100.00;101119.09;5006835;28;20045;-77
2023/06/23 09:13:44;;;;;;;17.02;12.05;;;15.80;99.90;;;18.68;100.00;101133.19;4994121;28;20038;-76
2023/06/23 09:16:10;;;;;;;18.33;12.18;;;15.80;99.90;;;18.67;100.00;101073.50;4996581;28;20111;-78
2023/06/23 09:18:40;;;;;;;14.75;10.98;;;15.70;99.90;;;19.15;100.00;101113.50;5000672;28;20049;-76
2023/06/23 09:21:08;;;;;;;13.98;10.75;;;15.70;99.90;;;18.76;100.00;101142.13;5006796;28;20501;-78
2023/06/23 09:23:34;;;;;;;12.75;9.57;;;15.60;99.90;;;18.76;100.00;101154.00;5002099;28;20045;-79
2023/06/23 09:26:03;;;;;;;13.30;9.13;;;15.60;99.90;;;17.96;100.00;101148.88;5003127;28;20042;-77
2023/06/23 09:28:36;;;;;;;13.95;9.98;;;15.60;99.90;;;18.30;100.00;101153.47;4993414;28;20034;-79
2023/06/23 09:31:17;;;;;;;13.90;9.27;;;15.70;99.90;;;18.03;100.00;101149.53;4999501;28;20045;-78
2023/06/23 09:33:52;;;;;;;14.60;8.35;;;15.60;99.90;;;18.26;100.00;101140.19;4982075;28;20038;-78
2023/06/23 09:36:19;;;;;;;13.43;9.35;;;15.60;99.90;;;18.59;100.00;101158.81;4994023;28;20104;-79
2023/06/23 09:38:45;;;;;;;14.00;9.10;;;15.60;99.90;;;18.55;100.00;101137.19;5006772;28;20042;-79
2023/06/23 09:41:18;;;;;;;13.55;8.88;;;15.60;99.90;;;18.55;100.00;101166.78;5003414;28;20387;-79
2023/06/23 09:43:46;;;;;;;11.90;8.80;;;15.60;99.90;;;18.45;100.00;101170.25;5002538;28;20041;-79
2023/06/23 09:46:17;;;;;;;12.63;9.50;;;15.60;99.90;;;18.86;100.00;101169.88;4998684;28;20046;-77
2023/06/23 09:48:45;;;;;;;15.60;9.93;;;15.60;99.90;;;19.12;100.00;101059.56;5005124;28;20398;-79
2023/06/23 09:51:12;;;;;;;21.40;10.20;;;15.70;99.90;;;19.22;100.00;101163.91;5007495;28;20042;-80
2023/06/23 09:53:41;;;;;;;14.52;9.77;;;15.70;99.90;;;19.05;100.00;101180.59;4991564;28;20022;-78
2023/06/23 09:56:19;;;;;;;15.30;10.95;;;15.70;99.90;;;19.04;100.00;101195.53;4998596;28;20053;-79
2023/06/23 09:58:47;;;;;;;16.77;10.93;;;15.70;99.90;;;18.54;100.00;101190.78;5004467;28;20057;-77
2023/06/23 10:01:17;;;;;;;20.20;12.55;;;15.70;99.90;;;18.48;100.00;101196.53;4983201;28;20049;-79
2023/06/23 10:03:51;;;;;;;16.92;12.55;;;15.70;99.90;;;18.65;100.00;101188.97;4998307;28;20121;-78
2023/06/23 10:06:34;;;;;;;18.20;12.02;;;15.70;99.90;;;18.48;100.00;101189.06;5008609;28;20038;-80